createdAt,value
2022-11-18T00:01:35.471Z,100.00
2022-11-18T00:04:02.379Z,100.00
2022-11-18T00:06:29.951Z,100.00
2022-11-18T00:08:56.531Z,100.00
2022-11-18T00:11:43.861Z,100.00
2022-11-18T00:14:19.456Z,100.00
2022-11-18T00:16:47.941Z,100.00
2022-11-18T00:19:15.856Z,100.00
2022-11-18T00:21:42.710Z,100.00
2022-11-18T00:24:09.896Z,100.00
2022-11-18T00:26:36.536Z,100.00
2022-11-18T00:29:04.275Z,100.00
2022-11-18T00:31:30.889Z,100.00
2022-11-18T00:33:57.420Z,100.00
2022-11-18T00:36:23.980Z,100.00
2022-11-18T00:38:50.461Z,100.00
2022-11-18T00:41:17.087Z,100.00
2022-11-18T00:43:43.628Z,100.00
2022-11-18T00:46:13.503Z,100.00
2022-11-18T00:48:40.570Z,100.00
2022-11-18T00:51:18.727Z,100.00
2022-11-18T00:53:45.664Z,100.00
2022-11-18T00:56:27.290Z,100.00
2022-11-18T00:58:53.811Z,100.00
2022-11-18T01:01:20.414Z,100.00
2022-11-18T01:03:46.995Z,100.00
2022-11-18T01:06:13.523Z,100.00
2022-11-18T01:08:40.184Z,100.00
2022-11-18T01:11:25.419Z,100.00
2022-11-18T01:13:52.771Z,100.00
2022-11-18T01:16:27.826Z,100.00
2022-11-18T01:18:54.769Z,100.00
2022-11-18T01:21:24.385Z,100.00
2022-11-18T01:23:51.143Z,100.00
2022-11-18T01:26:18.195Z,100.00
2022-11-18T01:28:45.249Z,100.00
2022-11-18T01:31:14.933Z,100.00
2022-11-18T01:33:42.671Z,100.00
2022-11-18T01:36:21.155Z,100.00
2022-11-18T01:38:48.110Z,100.00
2022-11-18T01:41:15.740Z,100.00
2022-11-18T01:43:54.346Z,100.00
2022-11-18T01:46:22.834Z,100.00
2022-11-18T01:48:54.851Z,100.00
2022-11-18T01:51:26.751Z,100.00
2022-11-18T01:54:00.286Z,100.00
2022-11-18T01:56:37.423Z,100.00
2022-11-18T01:59:09.450Z,100.00
2022-11-18T02:01:36.375Z,100.00
2022-11-18T02:04:03.591Z,100.00
2022-11-18T02:06:30.148Z,100.00
2022-11-18T02:08:57.164Z,100.00
2022-11-18T02:11:42.420Z,100.00
2022-11-18T02:14:10.424Z,100.00
2022-11-18T02:16:45.679Z,100.00
2022-11-18T02:19:43.010Z,100.00
2022-11-18T02:22:09.487Z,100.00
2022-11-18T02:24:49.014Z,100.00
2022-11-18T02:27:38.728Z,100.00
2022-11-18T02:30:08.888Z,100.00
2022-11-18T02:32:41.308Z,100.00
2022-11-18T02:35:23.732Z,100.00
2022-11-18T02:37:56.881Z,100.00
2022-11-18T02:40:31.747Z,100.00
2022-11-18T02:43:08.127Z,100.00
2022-11-18T02:45:36.332Z,100.00
2022-11-18T02:48:08.602Z,100.00
2022-11-18T02:50:37.660Z,100.00
2022-11-18T02:53:07.651Z,100.00
2022-11-18T02:55:37.476Z,100.00
2022-11-18T02:58:05.921Z,100.00
2022-11-18T03:00:33.360Z,100.00
2022-11-18T03:03:00.519Z,100.00
2022-11-18T03:05:35.296Z,100.00
2022-11-18T03:08:10.654Z,100.00
2022-11-18T03:10:49.781Z,100.00
2022-11-18T03:13:35.129Z,100.00
2022-11-18T03:16:07.182Z,100.00
2022-11-18T03:18:33.660Z,100.00
2022-11-18T03:21:10.300Z,100.00
2022-11-18T03:23:41.407Z,100.00
2022-11-18T03:26:23.206Z,100.00
2022-11-18T03:29:01.708Z,100.00
2022-11-18T03:31:33.783Z,100.00
2022-11-18T03:34:06.573Z,100.00
2022-11-18T03:36:40.627Z,100.00
2022-11-18T03:39:10.350Z,100.00
2022-11-18T03:41:45.125Z,100.00
2022-11-18T03:44:17.056Z,100.00
2022-11-18T03:46:45.476Z,100.00
2022-11-18T03:49:21.775Z,100.00
2022-11-18T03:51:55.196Z,100.00
2022-11-18T03:54:29.311Z,100.00
2022-11-18T03:57:18.349Z,100.00
2022-11-18T03:59:59.962Z,100.00
2022-11-18T04:02:29.323Z,100.00
2022-11-18T04:04:59.230Z,100.00
2022-11-18T04:07:45.386Z,100.00
2022-11-18T04:10:17.702Z,100.00
2022-11-18T04:13:04.656Z,100.00
2022-11-18T04:15:32.886Z,100.00
2022-11-18T04:17:59.777Z,100.00
2022-11-18T04:20:26.939Z,100.00
2022-11-18T04:22:53.479Z,100.00
2022-11-18T04:25:20.082Z,100.00
2022-11-18T04:27:48.616Z,100.00
2022-11-18T04:30:15.124Z,100.00
2022-11-18T04:32:41.625Z,100.00
2022-11-18T04:35:08.827Z,100.00
2022-11-18T04:37:35.327Z,100.00
2022-11-18T04:40:01.907Z,100.00
2022-11-18T04:42:28.558Z,100.00
2022-11-18T04:44:55.431Z,100.00
2022-11-18T04:47:22.139Z,100.00
2022-11-18T04:49:48.753Z,100.00
2022-11-18T04:52:15.395Z,100.00
2022-11-18T04:54:42.095Z,100.00
2022-11-18T04:57:09.009Z,100.00
2022-11-18T04:59:35.598Z,100.00
2022-11-18T05:02:02.337Z,100.00
2022-11-18T05:04:31.676Z,100.00
2022-11-18T05:06:59.652Z,100.00
2022-11-18T05:09:31.510Z,100.00
2022-11-18T05:12:20.106Z,100.00
2022-11-18T05:14:49.966Z,100.00
2022-11-18T05:17:17.904Z,100.00
2022-11-18T05:19:44.551Z,100.00
2022-11-18T05:22:11.115Z,100.00
2022-11-18T05:24:37.669Z,100.00
2022-11-18T05:27:04.216Z,100.00
2022-11-18T05:29:30.752Z,100.00
2022-11-18T05:31:57.773Z,100.00
2022-11-18T05:34:24.440Z,100.00
2022-11-18T05:36:51.148Z,100.00
2022-11-18T05:39:18.074Z,100.00
2022-11-18T05:42:03.053Z,100.00
2022-11-18T05:44:29.676Z,100.00
2022-11-18T05:46:56.660Z,100.00
2022-11-18T05:49:23.700Z,100.00
2022-11-18T05:51:50.269Z,100.00
2022-11-18T05:54:19.836Z,100.00
2022-11-18T05:56:46.545Z,100.00
2022-11-18T05:59:14.188Z,100.00
2022-11-18T06:01:42.998Z,100.00
2022-11-18T06:04:18.611Z,100.00
2022-11-18T06:06:47.976Z,100.00
2022-11-18T06:09:19.124Z,100.00
2022-11-18T06:11:53.377Z,100.00
2022-11-18T06:14:24.940Z,100.00
2022-11-18T06:16:58.565Z,100.00
2022-11-18T06:19:26.099Z,100.00
2022-11-18T06:21:53.358Z,100.00
2022-11-18T06:24:20.176Z,100.00
2022-11-18T06:26:47.719Z,100.00
2022-11-18T06:29:20.567Z,100.00
2022-11-18T06:31:50.997Z,100.00
2022-11-18T06:34:17.755Z,100.00
2022-11-18T06:36:44.314Z,100.00
2022-11-18T06:39:10.886Z,100.00
2022-11-18T06:41:37.445Z,100.00
2022-11-18T06:44:04.021Z,100.00
2022-11-18T06:46:49.441Z,100.00
2022-11-18T06:49:16.350Z,100.00
2022-11-18T06:51:43.165Z,100.00
2022-11-18T06:54:11.165Z,100.00
2022-11-18T06:56:38.253Z,100.00
2022-11-18T06:59:05.009Z,100.00
2022-11-18T07:01:35.445Z,100.00
2022-11-18T07:04:02.829Z,100.00
2022-11-18T07:06:32.789Z,100.00
2022-11-18T07:09:04.560Z,100.00
2022-11-18T07:11:31.159Z,100.00
2022-11-18T07:13:57.713Z,100.00
2022-11-18T07:16:26.330Z,100.00
2022-11-18T07:18:54.451Z,100.00
2022-11-18T07:21:23.740Z,100.00
2022-11-18T07:23:50.691Z,100.00
2022-11-18T07:26:17.903Z,100.00
2022-11-18T07:28:44.481Z,100.00
2022-11-18T07:31:13.465Z,100.00
2022-11-18T07:33:41.474Z,100.00
2022-11-18T07:36:09.913Z,100.00
2022-11-18T07:38:36.742Z,100.00
2022-11-18T07:41:11.906Z,100.00
2022-11-18T07:43:39.285Z,100.00
2022-11-18T07:46:14.488Z,100.00
2022-11-18T07:48:42.511Z,100.00
2022-11-18T07:51:09.304Z,100.00
2022-11-18T07:53:36.839Z,100.00
2022-11-18T07:56:04.863Z,100.00
2022-11-18T07:58:31.440Z,100.00
2022-11-18T08:00:58.360Z,100.00
2022-11-18T08:03:28.379Z,100.00
2022-11-18T08:06:02.202Z,100.00
2022-11-18T08:08:28.881Z,100.00
2022-11-18T08:10:57.395Z,100.00
2022-11-18T08:13:24.854Z,100.00
2022-11-18T08:15:52.287Z,100.00
2022-11-18T08:18:19.184Z,100.00
2022-11-18T08:20:45.897Z,100.00
2022-11-18T08:23:13.683Z,100.00
2022-11-18T08:25:40.997Z,100.00
2022-11-18T08:28:07.840Z,100.00
2022-11-18T08:30:35.386Z,100.00
2022-11-18T08:33:02.030Z,100.00
2022-11-18T08:35:30.054Z,100.00
2022-11-18T08:37:56.839Z,100.00
2022-11-18T08:40:23.992Z,100.00
2022-11-18T08:42:50.554Z,100.00
2022-11-18T08:45:17.508Z,100.00
2022-11-18T08:47:44.082Z,100.00
2022-11-18T08:50:12.074Z,100.00
2022-11-18T08:52:38.842Z,100.00
2022-11-18T08:55:05.759Z,100.00
2022-11-18T08:57:32.292Z,100.00
2022-11-18T08:59:58.884Z,100.00
2022-11-18T09:02:25.736Z,100.00
2022-11-18T09:04:53.402Z,100.00
2022-11-18T09:07:21.507Z,100.00
2022-11-18T09:09:48.763Z,100.00
2022-11-18T09:12:17.633Z,100.00
2022-11-18T09:17:34.808Z,100.00
2022-11-18T09:20:01.398Z,100.00
2022-11-18T09:22:28.013Z,100.00
2022-11-18T09:24:54.549Z,100.00
2022-11-18T09:27:21.179Z,100.00
2022-11-18T09:29:47.751Z,100.00
2022-11-18T09:32:14.728Z,100.00
2022-11-18T09:34:41.306Z,100.00
2022-11-18T09:37:07.877Z,100.00
2022-11-18T09:39:36.637Z,100.00
2022-11-18T09:42:27.293Z,100.00
2022-11-18T09:45:14.688Z,100.00
2022-11-18T09:47:43.096Z,100.00
2022-11-18T09:50:47.149Z,100.00
2022-11-18T09:53:12.378Z,100.00
2022-11-18T09:55:41.093Z,100.00
2022-11-18T09:58:12.849Z,100.00
2022-11-18T10:00:43.319Z,100.00
2022-11-18T10:03:33.691Z,100.00
2022-11-18T10:06:12.360Z,100.00
2022-11-18T10:08:45.233Z,100.00
2022-11-18T10:11:18.199Z,100.00
2022-11-18T10:13:56.760Z,100.00
2022-11-18T10:17:15.798Z,100.00
2022-11-18T10:19:42.253Z,100.00
2022-11-18T10:22:24.059Z,100.00
2022-11-18T10:24:53.649Z,100.00
2022-11-18T10:27:20.950Z,100.00
2022-11-18T10:29:58.008Z,100.00
2022-11-18T10:32:24.834Z,100.00
2022-11-18T10:34:58.895Z,100.00
2022-11-18T10:37:52.991Z,100.00
2022-11-18T10:40:28.119Z,100.00
2022-11-18T10:42:54.774Z,100.00
2022-11-18T10:45:21.471Z,100.00
2022-11-18T10:48:16.438Z,100.00
2022-11-18T10:50:49.353Z,100.00
2022-11-18T10:53:34.865Z,100.00
2022-11-18T10:56:07.663Z,100.00
2022-11-18T10:58:52.787Z,100.00
2022-11-18T11:01:19.337Z,100.00
2022-11-18T11:04:04.719Z,100.00
2022-11-18T11:06:37.477Z,100.00
2022-11-18T11:09:04.001Z,100.00
2022-11-18T11:11:56.970Z,100.00
2022-11-18T11:14:43.336Z,100.00
2022-11-18T11:17:15.563Z,100.00
2022-11-18T11:20:05.803Z,100.00
2022-11-18T11:22:32.949Z,100.00
2022-11-18T11:24:59.708Z,100.00
2022-11-18T11:30:27.689Z,100.00
2022-11-18T11:33:04.623Z,100.00
2022-11-18T11:36:12.084Z,99.29
2022-11-18T11:39:04.550Z,98.83
2022-11-18T11:41:45.516Z,98.44
2022-11-18T11:44:17.753Z,96.47
2022-11-18T11:47:25.738Z,95.12
2022-11-18T11:50:07.915Z,96.06
2022-11-18T11:52:44.894Z,95.28
2022-11-18T11:55:48.694Z,95.41
2022-11-18T11:58:33.132Z,91.63
2022-11-18T12:01:13.736Z,91.44
2022-11-18T12:03:52.370Z,92.68
2022-11-18T12:06:19.327Z,90.59
2022-11-18T12:09:08.018Z,91.82
2022-11-18T12:11:46.929Z,91.22
2022-11-18T12:14:53.930Z,92.49
2022-11-18T12:17:27.989Z,93.65
2022-11-18T12:19:54.630Z,91.53
2022-11-18T12:22:21.368Z,90.70
2022-11-18T12:24:48.034Z,92.40
2022-11-18T12:27:37.316Z,93.39
2022-11-18T12:30:04.454Z,92.89
2022-11-18T12:32:42.887Z,90.83
2022-11-18T12:35:12.460Z,90.28
2022-11-18T12:37:45.106Z,91.14
2022-11-18T12:40:34.753Z,92.30
2022-11-18T12:43:25.135Z,91.04
2022-11-18T12:45:57.202Z,90.34
2022-11-18T12:48:27.327Z,90.95
2022-11-18T12:51:16.455Z,90.59
2022-11-18T12:53:50.902Z,89.64
2022-11-18T12:56:17.418Z,90.90
2022-11-18T12:58:48.705Z,88.99
2022-11-18T13:01:19.137Z,90.24
2022-11-18T13:03:45.982Z,90.81
2022-11-18T13:06:28.471Z,88.26
2022-11-18T13:08:59.143Z,88.76
2022-11-18T13:11:47.063Z,89.49
2022-11-18T13:14:51.018Z,88.90
2022-11-18T13:17:47.659Z,88.91
2022-11-18T13:20:23.104Z,89.20
2022-11-18T13:23:14.447Z,89.81
2022-11-18T13:25:42.624Z,89.56
2022-11-18T13:28:17.363Z,89.50
2022-11-18T13:31:13.802Z,91.19
2022-11-18T13:33:41.121Z,90.32
2022-11-18T13:36:18.174Z,91.91
2022-11-18T13:39:06.173Z,89.61
2022-11-18T13:42:00.128Z,90.13
2022-11-18T13:44:29.750Z,89.23
2022-11-18T13:47:22.347Z,90.41
2022-11-18T13:49:54.921Z,90.43
2022-11-18T13:52:38.899Z,90.28
2022-11-18T13:55:19.124Z,89.41
2022-11-18T13:57:50.213Z,90.11
2022-11-18T14:00:32.050Z,89.68
2022-11-18T14:03:17.568Z,90.09
2022-11-18T14:05:56.691Z,89.61
2022-11-18T14:08:28.414Z,89.90
2022-11-18T14:10:55.559Z,88.93
2022-11-18T14:13:25.901Z,88.73
2022-11-18T14:15:57.819Z,88.37
2022-11-18T14:18:35.685Z,88.65
2022-11-18T14:21:04.640Z,88.68
2022-11-18T14:23:36.300Z,88.52
2022-11-18T14:26:07.114Z,89.17
2022-11-18T14:28:37.919Z,89.76
2022-11-18T14:31:13.174Z,88.02
2022-11-18T14:33:39.829Z,87.87
2022-11-18T14:36:15.555Z,89.81
2022-11-18T14:39:11.226Z,88.38
2022-11-18T14:41:49.776Z,88.53
2022-11-18T14:44:17.861Z,88.81
2022-11-18T14:46:48.279Z,89.31
2022-11-18T14:49:22.106Z,87.71
2022-11-18T14:51:49.962Z,88.29
2022-11-18T14:54:25.437Z,89.35
2022-11-18T14:56:57.123Z,88.92
2022-11-18T14:59:23.783Z,89.14
2022-11-18T15:01:50.546Z,88.08
2022-11-18T15:04:17.948Z,88.96
2022-11-18T15:06:44.903Z,88.92
2022-11-18T15:09:12.372Z,89.27
2022-11-18T15:11:39.184Z,88.30
2022-11-18T15:14:05.857Z,88.53
2022-11-18T15:16:33.880Z,88.13
2022-11-18T15:19:02.645Z,89.92
2022-11-18T15:21:29.419Z,89.65
2022-11-18T15:23:56.162Z,89.54
2022-11-18T15:26:23.914Z,90.05
2022-11-18T15:28:52.599Z,91.35
2022-11-18T15:31:22.960Z,91.35
2022-11-18T15:33:51.073Z,91.00
2022-11-18T15:36:22.047Z,90.94
2022-11-18T15:38:49.648Z,91.97
2022-11-18T15:41:38.289Z,91.52
2022-11-18T15:44:05.208Z,92.56
2022-11-18T15:46:33.398Z,93.46
2022-11-18T15:49:00.757Z,93.07
2022-11-18T15:51:29.493Z,93.57
2022-11-18T15:53:56.728Z,93.41
2022-11-18T15:56:23.256Z,93.28
2022-11-18T15:58:59.834Z,93.22
2022-11-18T16:01:31.584Z,94.54
2022-11-18T16:03:58.227Z,94.46
2022-11-18T16:06:25.557Z,94.89
2022-11-18T16:08:58.855Z,94.95
2022-11-18T16:11:45.022Z,94.92
2022-11-18T16:14:13.916Z,94.68
2022-11-18T16:16:42.304Z,94.84
2022-11-18T16:19:11.598Z,95.27
2022-11-18T16:21:40.859Z,96.16
2022-11-18T16:24:09.499Z,96.29
2022-11-18T16:26:37.191Z,96.54
2022-11-18T16:29:05.962Z,97.14
2022-11-18T16:31:41.829Z,95.89
2022-11-18T16:34:13.152Z,97.33
2022-11-18T16:36:41.841Z,98.15
2022-11-18T16:39:14.092Z,99.58
2022-11-18T16:41:42.304Z,100.00
2022-11-18T16:44:11.671Z,100.00
2022-11-18T16:46:40.430Z,99.72
2022-11-18T16:49:08.121Z,99.57
2022-11-18T16:52:07.135Z,98.45
2022-11-18T16:54:41.023Z,99.15
2022-11-18T16:57:11.458Z,98.96
2022-11-18T16:59:37.979Z,98.59
2022-11-18T17:02:06.145Z,99.35
2022-11-18T17:04:35.420Z,98.59
2022-11-18T17:07:02.211Z,98.73
2022-11-18T17:09:28.812Z,99.31
2022-11-18T17:11:56.534Z,98.68
2022-11-18T17:14:23.885Z,99.10
2022-11-18T17:16:51.473Z,99.28
2022-11-18T17:19:20.896Z,98.79
2022-11-18T17:21:48.887Z,98.78
2022-11-18T17:24:20.842Z,99.24
2022-11-18T17:26:48.527Z,97.92
2022-11-18T17:29:15.849Z,98.92
2022-11-18T17:31:43.042Z,99.00
2022-11-18T17:34:14.470Z,99.51
2022-11-18T17:36:41.954Z,99.66
2022-11-18T17:39:10.911Z,99.19
2022-11-18T17:41:56.309Z,98.98
2022-11-18T17:44:23.135Z,99.34
2022-11-18T17:46:50.077Z,99.69
2022-11-18T17:49:18.286Z,99.72
2022-11-18T17:51:48.244Z,99.67
2022-11-18T17:54:15.970Z,99.44
2022-11-18T17:56:42.908Z,100.00
2022-11-18T17:59:09.509Z,100.00
2022-11-18T18:01:36.247Z,100.00
2022-11-18T18:04:03.178Z,100.00
2022-11-18T18:06:29.765Z,100.00
2022-11-18T18:08:59.816Z,99.88
2022-11-18T18:11:27.164Z,99.44
2022-11-18T18:14:12.496Z,99.85
2022-11-18T18:16:46.144Z,99.73
2022-11-18T18:19:16.129Z,100.00
2022-11-18T18:21:42.652Z,99.95
2022-11-18T18:24:10.048Z,100.00
2022-11-18T18:26:37.405Z,100.00
2022-11-18T18:29:05.008Z,100.00
2022-11-18T18:31:36.738Z,100.00
2022-11-18T18:34:04.130Z,100.00
2022-11-18T18:36:30.947Z,100.00
2022-11-18T18:38:58.656Z,100.00
2022-11-18T18:41:25.155Z,100.00
2022-11-18T18:43:51.775Z,100.00
2022-11-18T18:46:32.045Z,100.00
2022-11-18T18:49:07.533Z,100.00
2022-11-18T18:51:37.978Z,100.00
2022-11-18T18:54:04.802Z,100.00
2022-11-18T18:56:32.561Z,100.00
2022-11-18T18:58:59.712Z,100.00
2022-11-18T19:01:27.920Z,100.00
2022-11-18T19:04:03.114Z,100.00
2022-11-18T19:06:58.416Z,100.00
2022-11-18T19:09:22.119Z,100.00
2022-11-18T19:12:07.200Z,100.00
2022-11-18T19:14:35.422Z,100.00
2022-11-18T19:17:06.624Z,100.00
2022-11-18T19:19:55.208Z,100.00
2022-11-18T19:22:22.108Z,100.00
2022-11-18T19:24:50.491Z,100.00
2022-11-18T19:27:18.497Z,100.00
2022-11-18T19:29:45.340Z,100.00
2022-11-18T19:32:12.254Z,100.00
2022-11-18T19:34:38.783Z,100.00
2022-11-18T19:37:05.329Z,100.00
2022-11-18T19:39:31.849Z,100.00
2022-11-18T19:41:58.877Z,100.00
2022-11-18T19:44:25.508Z,100.00
2022-11-18T19:46:52.033Z,100.00
2022-11-18T19:49:18.951Z,100.00
2022-11-18T19:51:45.709Z,100.00
2022-11-18T19:54:12.366Z,100.00
2022-11-18T19:56:38.996Z,100.00
2022-11-18T19:59:05.558Z,100.00
2022-11-18T20:01:32.860Z,100.00
2022-11-18T20:04:03.198Z,100.00
2022-11-18T20:06:30.202Z,100.00
2022-11-18T20:08:58.361Z,100.00
2022-11-18T20:11:26.257Z,100.00
2022-11-18T20:13:53.450Z,100.00
2022-11-18T20:16:25.275Z,100.00
2022-11-18T20:18:56.510Z,100.00
2022-11-18T20:21:25.066Z,100.00
2022-11-18T20:23:57.688Z,100.00
2022-11-18T20:26:27.058Z,100.00
2022-11-18T20:28:57.387Z,100.00
2022-11-18T20:31:26.112Z,100.00
2022-11-18T20:33:54.929Z,100.00
2022-11-18T20:36:24.557Z,100.00
2022-11-18T20:38:58.840Z,100.00
2022-11-18T20:41:26.540Z,100.00
2022-11-18T20:43:53.627Z,100.00
2022-11-18T20:46:21.944Z,100.00
2022-11-18T20:48:50.339Z,100.00
2022-11-18T20:51:23.778Z,100.00
2022-11-18T20:53:52.280Z,100.00
2022-11-18T20:56:26.514Z,100.00
2022-11-18T20:58:54.448Z,100.00
2022-11-18T21:01:25.262Z,100.00
2022-11-18T21:04:01.813Z,100.00
2022-11-18T21:06:30.724Z,100.00
2022-11-18T21:08:59.551Z,100.00
2022-11-18T21:11:26.930Z,100.00
2022-11-18T21:14:12.380Z,100.00
2022-11-18T21:16:40.736Z,100.00
2022-11-18T21:19:07.414Z,100.00
2022-11-18T21:21:45.818Z,100.00
2022-11-18T21:24:14.533Z,100.00
2022-11-18T21:26:41.750Z,100.00
2022-11-18T21:29:10.077Z,100.00
2022-11-18T21:31:37.342Z,100.00
2022-11-18T21:34:04.589Z,100.00
2022-11-18T21:36:31.313Z,100.00
2022-11-18T21:38:59.079Z,100.00
2022-11-18T21:41:26.930Z,100.00
2022-11-18T21:44:09.747Z,100.00
2022-11-18T21:46:37.528Z,100.00
2022-11-18T21:49:05.185Z,100.00
2022-11-18T21:51:32.575Z,100.00
2022-11-18T21:54:02.645Z,100.00
2022-11-18T21:56:31.279Z,100.00
2022-11-18T21:59:00.847Z,100.00
2022-11-18T22:01:29.890Z,100.00
2022-11-18T22:03:58.557Z,100.00
2022-11-18T22:06:26.467Z,100.00
2022-11-18T22:08:53.133Z,100.00
2022-11-18T22:11:23.506Z,100.00
2022-11-18T22:13:54.137Z,100.00
2022-11-18T22:16:23.089Z,100.00
2022-11-18T22:18:57.002Z,100.00
2022-11-18T22:21:26.491Z,100.00
2022-11-18T22:23:57.396Z,100.00
2022-11-18T22:26:24.090Z,100.00
2022-11-18T22:28:55.598Z,100.00
2022-11-18T22:31:24.062Z,100.00
2022-11-18T22:33:52.306Z,100.00
2022-11-18T22:36:20.952Z,100.00
2022-11-18T22:38:48.017Z,100.00
2022-11-18T22:41:44.465Z,100.00
2022-11-18T22:44:12.506Z,100.00
2022-11-18T22:46:40.337Z,100.00
2022-11-18T22:49:08.440Z,100.00
2022-11-18T22:51:36.335Z,100.00
2022-11-18T22:54:36.673Z,100.00
2022-11-18T22:56:50.430Z,100.00
2022-11-18T22:59:17.320Z,100.00
2022-11-18T23:01:44.436Z,100.00
2022-11-18T23:04:10.958Z,100.00
2022-11-18T23:06:37.576Z,100.00
2022-11-18T23:09:04.281Z,100.00
2022-11-18T23:11:49.882Z,100.00
2022-11-18T23:14:16.680Z,100.00
2022-11-18T23:16:43.746Z,100.00
2022-11-18T23:19:13.035Z,100.00
2022-11-18T23:21:39.899Z,100.00
2022-11-18T23:24:07.765Z,100.00
2022-11-18T23:26:34.337Z,100.00
2022-11-18T23:29:00.820Z,100.00
2022-11-18T23:31:27.795Z,100.00
2022-11-18T23:33:57.828Z,100.00
2022-11-18T23:36:25.750Z,100.00
2022-11-18T23:38:53.582Z,100.00
2022-11-18T23:41:20.989Z,100.00
2022-11-18T23:43:48.797Z,100.00
2022-11-18T23:46:16.997Z,100.00
2022-11-18T23:48:44.474Z,100.00
2022-11-18T23:51:20.535Z,100.00
2022-11-18T23:53:51.425Z,100.00
2022-11-18T23:56:19.694Z,100.00
2022-11-18T23:58:48.844Z,100.00
